sensor_id;sensor_type;location;lat;lon;timestamp;P1;durP1;ratioP1;P2;durP2;ratioP2
30888;SDS011;51092;50.874;7.024;2023-05-07T00:00:40;6.40;;;4.88;;
30888;SDS011;51092;50.874;7.024;2023-05-07T00:01:41;4.63;;;4.15;;
30888;SDS011;51092;50.874;7.024;2023-05-07T00:02:44;8.30;;;5.05;;
30888;SDS011;51092;50.874;7.024;2023-05-07T00:03:46;7.68;;;5.13;;
30888;SDS011;51092;50.874;7.024;2023-05-07T00:04:48;7.57;;;5.22;;
30888;SDS011;51092;50.874;7.024;2023-05-07T00:05:50;5.75;;;5.15;;
30888;SDS011;51092;50.874;7.024;2023-05-07T00:06:53;5.97;;;5.07;;
30888;SDS011;51092;50.874;7.024;2023-05-07T00:07:56;7.60;;;4.80;;
30888;SDS011;51092;50.874;7.024;2023-05-07T00:08:58;6.60;;;5.85;;
30888;SDS011;51092;50.874;7.024;2023-05-07T00:10:00;8.13;;;5.85;;
30888;SDS011;51092;50.874;7.024;2023-05-07T00:11:03;7.55;;;6.00;;
30888;SDS011;51092;50.874;7.024;2023-05-07T00:12:04;8.13;;;6.00;;
30888;SDS011;51092;50.874;7.024;2023-05-07T00:13:07;10.57;;;6.93;;
30888;SDS011;51092;50.874;7.024;2023-05-07T00:14:09;6.20;;;5.70;;
30888;SDS011;51092;50.874;7.024;2023-05-07T00:15:11;7.15;;;5.75;;
30888;SDS011;51092;50.874;7.024;2023-05-07T00:16:14;8.18;;;6.63;;
30888;SDS011;51092;50.874;7.024;2023-05-07T00:17:16;6.43;;;5.15;;
30888;SDS011;51092;50.874;7.024;2023-05-07T00:18:17;8.65;;;7.00;;
30888;SDS011;51092;50.874;7.024;2023-05-07T00:19:21;5.75;;;5.18;;
30888;SDS011;51092;50.874;7.024;2023-05-07T00:20:22;6.68;;;5.03;;
30888;SDS011;51092;50.874;7.024;2023-05-07T00:21:24;6.80;;;5.18;;
30888;SDS011;51092;50.874;7.024;2023-05-07T00:22:27;5.57;;;4.97;;
30888;SDS011;51092;50.874;7.024;2023-05-07T00:23:30;7.00;;;4.78;;
30888;SDS011;51092;50.874;7.024;2023-05-07T00:24:32;6.25;;;5.50;;
30888;SDS011;51092;50.874;7.024;2023-05-07T00:25:35;5.18;;;4.60;;
30888;SDS011;51092;50.874;7.024;2023-05-07T00:26:36;5.40;;;4.93;;
30888;SDS011;51092;50.874;7.024;2023-05-07T00:27:39;4.90;;;4.45;;
30888;SDS011;51092;50.874;7.024;2023-05-07T00:28:40;7.22;;;4.63;;
30888;SDS011;51092;50.874;7.024;2023-05-07T00:29:43;5.28;;;4.57;;
30888;SDS011;51092;50.874;7.024;2023-05-07T00:30:45;6.18;;;4.72;;
30888;SDS011;51092;50.874;7.024;2023-05-07T00:31:50;8.35;;;4.90;;
30888;SDS011;51092;50.874;7.024;2023-05-07T00:32:51;6.43;;;4.90;;
30888;SDS011;51092;50.874;7.024;2023-05-07T00:33:54;7.32;;;4.95;;
30888;SDS011;51092;50.874;7.024;2023-05-07T00:34:55;5.40;;;4.88;;
30888;SDS011;51092;50.874;7.024;2023-05-07T00:35:57;6.90;;;4.95;;
30888;SDS011;51092;50.874;7.024;2023-05-07T00:37:01;5.88;;;4.88;;
30888;SDS011;51092;50.874;7.024;2023-05-07T00:38:04;6.97;;;4.97;;
30888;SDS011;51092;50.874;7.024;2023-05-07T00:39:05;8.68;;;4.43;;
30888;SDS011;51092;50.874;7.024;2023-05-07T00:40:08;6.38;;;5.60;;
30888;SDS011;51092;50.874;7.024;2023-05-07T00:41:10;5.75;;;5.20;;
30888;SDS011;51092;50.874;7.024;2023-05-07T00:42:12;5.43;;;4.32;;
30888;SDS011;51092;50.874;7.024;2023-05-07T00:43:15;5.00;;;4.53;;
30888;SDS011;51092;50.874;7.024;2023-05-07T00:44:18;5.88;;;5.28;;
30888;SDS011;51092;50.874;7.024;2023-05-07T00:45:19;5.15;;;4.68;;
30888;SDS011;51092;50.874;7.024;2023-05-07T00:46:22;8.40;;;5.07;;
30888;SDS011;51092;50.874;7.024;2023-05-07T00:47:25;4.43;;;4.03;;
30888;SDS011;51092;50.874;7.024;2023-05-07T00:48:28;9.52;;;4.68;;
30888;SDS011;51092;50.874;7.024;2023-05-07T00:49:34;6.32;;;5.22;;
30888;SDS011;51092;50.874;7.024;2023-05-07T00:50:39;5.35;;;4.47;;
30888;SDS011;51092;50.874;7.024;2023-05-07T00:51:41;7.13;;;4.97;;
30888;SDS011;51092;50.874;7.024;2023-05-07T00:52:44;5.85;;;4.63;;
30888;SDS011;51092;50.874;7.024;2023-05-07T00:53:45;4.75;;;4.20;;
30888;SDS011;51092;50.874;7.024;2023-05-07T00:54:49;5.93;;;5.38;;
30888;SDS011;51092;50.874;7.024;2023-05-07T00:55:50;4.50;;;4.15;;
30888;SDS011;51092;50.874;7.024;2023-05-07T00:56:53;5.18;;;4.47;;
30888;SDS011;51092;50.874;7.024;2023-05-07T00:57:55;5.68;;;4.15;;
30888;SDS011;51092;50.874;7.024;2023-05-07T00:58:58;5.00;;;4.50;;
30888;SDS011;51092;50.874;7.024;2023-05-07T01:00:01;5.57;;;4.22;;
30888;SDS011;51092;50.874;7.024;2023-05-07T01:01:04;4.28;;;3.88;;
30888;SDS011;51092;50.874;7.024;2023-05-07T01:02:05;6.30;;;4.90;;
30888;SDS011;51092;50.874;7.024;2023-05-07T01:03:10;5.70;;;4.75;;
30888;SDS011;51092;50.874;7.024;2023-05-07T01:04:12;7.35;;;4.70;;
30888;SDS011;51092;50.874;7.024;2023-05-07T01:05:15;5.72;;;4.63;;
30888;SDS011;51092;50.874;7.024;2023-05-07T01:06:18;5.38;;;3.97;;
30888;SDS011;51092;50.874;7.024;2023-05-07T01:07:22;5.60;;;4.00;;
30888;SDS011;51092;50.874;7.024;2023-05-07T01:08:24;7.15;;;3.80;;
30888;SDS011;51092;50.874;7.024;2023-05-07T01:09:28;5.05;;;4.45;;
30888;SDS011;51092;50.874;7.024;2023-05-07T01:10:30;6.35;;;4.20;;
30888;SDS011;51092;50.874;7.024;2023-05-07T01:11:33;6.32;;;3.90;;
30888;SDS011;51092;50.874;7.024;2023-05-07T01:12:34;6.78;;;4.32;;
30888;SDS011;51092;50.874;7.024;2023-05-07T01:13:38;6.05;;;3.95;;
30888;SDS011;51092;50.874;7.024;2023-05-07T01:14:40;5.03;;;3.90;;
30888;SDS011;51092;50.874;7.024;2023-05-07T01:15:43;5.07;;;4.28;;
30888;SDS011;51092;50.874;7.024;2023-05-07T01:16:45;5.38;;;4.88;;
30888;SDS011;51092;50.874;7.024;2023-05-07T01:17:47;6.05;;;4.40;;
30888;SDS011;51092;50.874;7.024;2023-05-07T01:18:50;5.65;;;4.38;;
30888;SDS011;51092;50.874;7.024;2023-05-07T01:19:52;6.90;;;4.22;;
30888;SDS011;51092;50.874;7.024;2023-05-07T01:20:54;6.93;;;4.57;;
30888;SDS011;51092;50.874;7.024;2023-05-07T01:22:01;5.72;;;3.90;;
30888;SDS011;51092;50.874;7.024;2023-05-07T01:23:06;6.20;;;4.18;;
30888;SDS011;51092;50.874;7.024;2023-05-07T01:24:09;4.65;;;4.05;;
30888;SDS011;51092;50.874;7.024;2023-05-07T01:25:12;4.78;;;3.60;;
30888;SDS011;51092;50.874;7.024;2023-05-07T01:26:16;5.18;;;3.60;;
30888;SDS011;51092;50.874;7.024;2023-05-07T01:27:20;6.47;;;3.35;;
30888;SDS011;51092;50.874;7.024;2023-05-07T01:28:22;7.05;;;4.05;;
30888;SDS011;51092;50.874;7.024;2023-05-07T01:29:24;5.90;;;3.22;;
30888;SDS011;51092;50.874;7.024;2023-05-07T01:30:26;3.53;;;3.22;;
30888;SDS011;51092;50.874;7.024;2023-05-07T01:31:29;6.93;;;4.28;;
30888;SDS011;51092;50.874;7.024;2023-05-07T01:32:32;3.58;;;3.17;;
30888;SDS011;51092;50.874;7.024;2023-05-07T01:33:38;7.13;;;3.60;;
30888;SDS011;51092;50.874;7.024;2023-05-07T01:34:44;4.78;;;3.78;;
30888;SDS011;51092;50.874;7.024;2023-05-07T01:35:50;6.57;;;3.88;;
30888;SDS011;51092;50.874;7.024;2023-05-07T01:36:55;6.03;;;3.90;;
30888;SDS011;51092;50.874;7.024;2023-05-07T01:37:58;4.05;;;3.42;;
30888;SDS011;51092;50.874;7.024;2023-05-07T01:39:03;4.18;;;3.60;;
30888;SDS011;51092;50.874;7.024;2023-05-07T01:40:06;6.43;;;3.67;;
30888;SDS011;51092;50.874;7.024;2023-05-07T01:41:10;5.72;;;3.47;;
30888;SDS011;51092;50.874;7.024;2023-05-07T01:42:13;3.80;;;3.40;;
30888;SDS011;51092;50.874;7.024;2023-05-07T01:43:15;5.63;;;3.88;;
30888;SDS011;51092;50.874;7.024;2023-05-07T01:44:18;4.20;;;3.75;;
30888;SDS011;51092;50.874;7.024;2023-05-07T01:45:21;4.90;;;3.35;;
30888;SDS011;51092;50.874;7.024;2023-05-07T01:46:23;4.78;;;3.45;;
30888;SDS011;51092;50.874;7.024;2023-05-07T01:47:26;4.65;;;3.30;;
30888;SDS011;51092;50.874;7.024;2023-05-07T01:48:29;5.90;;;3.60;;
30888;SDS011;51092;50.874;7.024;2023-05-07T01:49:33;4.40;;;3.50;;
30888;SDS011;51092;50.874;7.024;2023-05-07T01:50:35;3.45;;;3.10;;
30888;SDS011;51092;50.874;7.024;2023-05-07T01:51:39;5.47;;;3.88;;
30888;SDS011;51092;50.874;7.024;2023-05-07T01:52:41;4.15;;;3.35;;
30888;SDS011;51092;50.874;7.024;2023-05-07T01:53:43;4.03;;;3.10;;
30888;SDS011;51092;50.874;7.024;2023-05-07T01:54:47;5.45;;;3.60;;
30888;SDS011;51092;50.874;7.024;2023-05-07T01:55:50;3.63;;;3.05;;
30888;SDS011;51092;50.874;7.024;2023-05-07T01:56:51;6.32;;;3.80;;
30888;SDS011;51092;50.874;7.024;2023-05-07T01:57:54;4.88;;;3.22;;
30888;SDS011;51092;50.874;7.024;2023-05-07T01:58:55;4.13;;;2.83;;
30888;SDS011;51092;50.874;7.024;2023-05-07T01:59:57;3.30;;;3.00;;
30888;SDS011;51092;50.874;7.024;2023-05-07T02:00:59;4.43;;;3.05;;
30888;SDS011;51092;50.874;7.024;2023-05-07T02:02:02;3.83;;;3.10;;
30888;SDS011;51092;50.874;7.024;2023-05-07T02:03:03;4.93;;;3.30;;
30888;SDS011;51092;50.874;7.024;2023-05-07T02:04:06;4.15;;;3.15;;
30888;SDS011;51092;50.874;7.024;2023-05-07T02:05:08;3.97;;;3.47;;
30888;SDS011;51092;50.874;7.024;2023-05-07T02:06:10;6.00;;;3.00;;
30888;SDS011;51092;50.874;7.024;2023-05-07T02:07:12;3.75;;;3.05;;
30888;SDS011;51092;50.874;7.024;2023-05-07T02:08:14;4.72;;;3.90;;
30888;SDS011;51092;50.874;7.024;2023-05-07T02:09:16;4.95;;;3.33;;
30888;SDS011;51092;50.874;7.024;2023-05-07T02:10:19;4.60;;;3.53;;
30888;SDS011;51092;50.874;7.024;2023-05-07T02:11:21;4.28;;;3.08;;
30888;SDS011;51092;50.874;7.024;2023-05-07T02:12:24;4.53;;;3.35;;
30888;SDS011;51092;50.874;7.024;2023-05-07T02:13:26;5.00;;;2.83;;
30888;SDS011;51092;50.874;7.024;2023-05-07T02:14:30;4.88;;;3.03;;
30888;SDS011;51092;50.874;7.024;2023-05-07T02:15:32;3.22;;;2.92;;
30888;SDS011;51092;50.874;7.024;2023-05-07T02:16:34;4.05;;;3.00;;
30888;SDS011;51092;50.874;7.024;2023-05-07T02:17:38;7.90;;;3.60;;
30888;SDS011;51092;50.874;7.024;2023-05-07T02:19:00;3.65;;;3.10;;
30888;SDS011;51092;50.874;7.024;2023-05-07T02:20:01;3.67;;;3.22;;
30888;SDS011;51092;50.874;7.024;2023-05-07T02:21:04;3.78;;;3.42;;
30888;SDS011;51092;50.874;7.024;2023-05-07T02:22:06;5.20;;;2.80;;
30888;SDS011;51092;50.874;7.024;2023-05-07T02:23:08;6.97;;;3.42;;
30888;SDS011;51092;50.874;7.024;2023-05-07T02:24:09;5.50;;;3.08;;
30888;SDS011;51092;50.874;7.024;2023-05-07T02:25:10;6.93;;;2.85;;
30888;SDS011;51092;50.874;7.024;2023-05-07T02:26:13;3.97;;;3.10;;
30888;SDS011;51092;50.874;7.024;2023-05-07T02:27:15;4.43;;;3.30;;
30888;SDS011;51092;50.874;7.024;2023-05-07T02:28:17;4.75;;;3.75;;
30888;SDS011;51092;50.874;7.024;2023-05-07T02:29:19;6.00;;;3.60;;
30888;SDS011;51092;50.874;7.024;2023-05-07T02:30:21;4.43;;;3.20;;
30888;SDS011;51092;50.874;7.024;2023-05-07T02:31:23;5.03;;;3.58;;
30888;SDS011;51092;50.874;7.024;2023-05-07T02:32:24;4.70;;;3.53;;
30888;SDS011;51092;50.874;7.024;2023-05-07T02:33:27;3.45;;;3.15;;
30888;SDS011;51092;50.874;7.024;2023-05-07T02:34:28;10.63;;;4.30;;
30888;SDS011;51092;50.874;7.024;2023-05-07T02:35:31;4.85;;;3.55;;
30888;SDS011;51092;50.874;7.024;2023-05-07T02:36:32;4.63;;;3.67;;
30888;SDS011;51092;50.874;7.024;2023-05-07T02:37:35;6.93;;;4.20;;
30888;SDS011;51092;50.874;7.024;2023-05-07T02:38:37;5.90;;;3.47;;
30888;SDS011;51092;50.874;7.024;2023-05-07T02:39:39;4.20;;;3.42;;
30888;SDS011;51092;50.874;7.024;2023-05-07T02:40:41;3.83;;;3.53;;
30888;SDS011;51092;50.874;7.024;2023-05-07T02:41:45;5.80;;;3.67;;
30888;SDS011;51092;50.874;7.024;2023-05-07T02:42:46;3.55;;;3.22;;
30888;SDS011;51092;50.874;7.024;2023-05-07T02:43:48;6.72;;;4.00;;
30888;SDS011;51092;50.874;7.024;2023-05-07T02:44:50;6.05;;;4.28;;
30888;SDS011;51092;50.874;7.024;2023-05-07T02:45:59;7.18;;;4.45;;
30888;SDS011;51092;50.874;7.024;2023-05-07T02:47:02;7.00;;;3.80;;
30888;SDS011;51092;50.874;7.024;2023-05-07T02:48:08;3.60;;;3.22;;
30888;SDS011;51092;50.874;7.024;2023-05-07T02:49:10;4.57;;;4.15;;
30888;SDS011;51092;50.874;7.024;2023-05-07T02:50:13;7.85;;;4.28;;
30888;SDS011;51092;50.874;7.024;2023-05-07T02:51:14;4.45;;;3.65;;
30888;SDS011;51092;50.874;7.024;2023-05-07T02:52:17;4.78;;;3.72;;
30888;SDS011;51092;50.874;7.024;2023-05-07T02:53:18;4.72;;;4.32;;
30888;SDS011;51092;50.874;7.024;2023-05-07T02:54:20;6.10;;;3.60;;
30888;SDS011;51092;50.874;7.024;2023-05-07T02:55:22;7.03;;;4.00;;
30888;SDS011;51092;50.874;7.024;2023-05-07T02:56:25;5.35;;;3.70;;
30888;SDS011;51092;50.874;7.024;2023-05-07T02:57:28;6.53;;;4.18;;
30888;SDS011;51092;50.874;7.024;2023-05-07T02:58:31;6.82;;;3.92;;
30888;SDS011;51092;50.874;7.024;2023-05-07T02:59:32;4.85;;;4.30;;
30888;SDS011;51092;50.874;7.024;2023-05-07T03:00:34;4.80;;;3.75;;
30888;SDS011;51092;50.874;7.024;2023-05-07T03:01:36;4.65;;;3.70;;
30888;SDS011;51092;50.874;7.024;2023-05-07T03:02:41;5.32;;;3.83;;
30888;SDS011;51092;50.874;7.024;2023-05-07T03:03:43;5.88;;;3.55;;
30888;SDS011;51092;50.874;7.024;2023-05-07T03:04:46;7.38;;;3.95;;
30888;SDS011;51092;50.874;7.024;2023-05-07T03:05:47;6.28;;;4.38;;
30888;SDS011;51092;50.874;7.024;2023-05-07T03:06:50;3.58;;;3.28;;
30888;SDS011;51092;50.874;7.024;2023-05-07T03:07:51;6.07;;;4.18;;
30888;SDS011;51092;50.874;7.024;2023-05-07T03:08:54;4.50;;;3.53;;
30888;SDS011;51092;50.874;7.024;2023-05-07T03:09:55;4.45;;;3.63;;
30888;SDS011;51092;50.874;7.024;2023-05-07T03:10:58;3.97;;;3.30;;
30888;SDS011;51092;50.874;7.024;2023-05-07T03:11:59;4.05;;;3.63;;
30888;SDS011;51092;50.874;7.024;2023-05-07T03:13:04;4.47;;;3.85;;
30888;SDS011;51092;50.874;7.024;2023-05-07T03:14:05;5.22;;;3.25;;
30888;SDS011;51092;50.874;7.024;2023-05-07T03:15:08;3.97;;;3.50;;
30888;SDS011;51092;50.874;7.024;2023-05-07T03:16:11;4.05;;;3.50;;
30888;SDS011;51092;50.874;7.024;2023-05-07T03:17:14;4.03;;;3.20;;
30888;SDS011;51092;50.874;7.024;2023-05-07T03:18:16;6.30;;;3.55;;
30888;SDS011;51092;50.874;7.024;2023-05-07T03:19:19;4.18;;;3.25;;
30888;SDS011;51092;50.874;7.024;2023-05-07T03:20:20;4.13;;;3.40;;
30888;SDS011;51092;50.874;7.024;2023-05-07T03:21:23;9.45;;;3.40;;
30888;SDS011;51092;50.874;7.024;2023-05-07T03:22:25;5.20;;;3.50;;
30888;SDS011;51092;50.874;7.024;2023-05-07T03:23:27;4.90;;;3.05;;
30888;SDS011;51092;50.874;7.024;2023-05-07T03:24:29;4.43;;;2.83;;
30888;SDS011;51092;50.874;7.024;2023-05-07T03:25:31;3.60;;;2.83;;
30888;SDS011;51092;50.874;7.024;2023-05-07T03:26:33;7.85;;;3.97;;
30888;SDS011;51092;50.874;7.024;2023-05-07T03:27:35;4.53;;;3.33;;
30888;SDS011;51092;50.874;7.024;2023-05-07T03:28:37;6.65;;;3.58;;
30888;SDS011;51092;50.874;7.024;2023-05-07T03:29:39;4.80;;;3.22;;
30888;SDS011;51092;50.874;7.024;2023-05-07T03:30:40;4.18;;;2.95;;
30888;SDS011;51092;50.874;7.024;2023-05-07T03:31:42;3.85;;;3.35;;
30888;SDS011;51092;50.874;7.024;2023-05-07T03:32:44;7.25;;;3.80;;
30888;SDS011;51092;50.874;7.024;2023-05-07T03:33:50;4.03;;;3.00;;
30888;SDS011;51092;50.874;7.024;2023-05-07T03:34:52;6.28;;;3.28;;
30888;SDS011;51092;50.874;7.024;2023-05-07T03:35:55;6.63;;;3.13;;
30888;SDS011;51092;50.874;7.024;2023-05-07T03:36:56;5.20;;;3.63;;
30888;SDS011;51092;50.874;7.024;2023-05-07T03:37:59;4.70;;;3.72;;
30888;SDS011;51092;50.874;7.024;2023-05-07T03:39:00;3.63;;;3.28;;
30888;SDS011;51092;50.874;7.024;2023-05-07T03:40:03;4.45;;;3.42;;
30888;SDS011;51092;50.874;7.024;2023-05-07T03:41:05;5.05;;;3.38;;
30888;SDS011;51092;50.874;7.024;2023-05-07T03:42:08;5.75;;;3.35;;
30888;SDS011;51092;50.874;7.024;2023-05-07T03:43:09;3.40;;;3.10;;
30888;SDS011;51092;50.874;7.024;2023-05-07T03:44:13;4.78;;;2.97;;
30888;SDS011;51092;50.874;7.024;2023-05-07T03:45:15;4.10;;;3.70;;
30888;SDS011;51092;50.874;7.024;2023-05-07T03:46:17;5.05;;;3.22;;
30888;SDS011;51092;50.874;7.024;2023-05-07T03:47:19;5.72;;;3.45;;
30888;SDS011;51092;50.874;7.024;2023-05-07T03:48:21;6.65;;;4.05;;
30888;SDS011;51092;50.874;7.024;2023-05-07T03:49:23;6.15;;;3.38;;
30888;SDS011;51092;50.874;7.024;2023-05-07T03:50:25;5.22;;;3.25;;
30888;SDS011;51092;50.874;7.024;2023-05-07T03:51:27;6.07;;;4.28;;
30888;SDS011;51092;50.874;7.024;2023-05-07T03:52:29;3.92;;;3.05;;
30888;SDS011;51092;50.874;7.024;2023-05-07T03:53:31;3.83;;;3.13;;
30888;SDS011;51092;50.874;7.024;2023-05-07T03:54:33;4.05;;;3.15;;
30888;SDS011;51092;50.874;7.024;2023-05-07T03:55:35;4.38;;;3.28;;
30888;SDS011;51092;50.874;7.024;2023-05-07T03:56:37;3.83;;;3.35;;
30888;SDS011;51092;50.874;7.024;2023-05-07T03:57:39;3.63;;;3.05;;
30888;SDS011;51092;50.874;7.024;2023-05-07T03:58:41;5.50;;;3.33;;
30888;SDS011;51092;50.874;7.024;2023-05-07T03:59:44;3.83;;;3.08;;
30888;SDS011;51092;50.874;7.024;2023-05-07T04:00:46;5.10;;;3.95;;
30888;SDS011;51092;50.874;7.024;2023-05-07T04:01:48;5.20;;;4.15;;
30888;SDS011;51092;50.874;7.024;2023-05-07T04:02:51;10.15;;;4.28;;
30888;SDS011;51092;50.874;7.024;2023-05-07T04:03:53;3.97;;;3.58;;
30888;SDS011;51092;50.874;7.024;2023-05-07T04:04:55;5.38;;;3.50;;
30888;SDS011;51092;50.874;7.024;2023-05-07T04:05:56;4.18;;;3.40;;
30888;SDS011;51092;50.874;7.024;2023-05-07T04:06:59;5.45;;;3.75;;
30888;SDS011;51092;50.874;7.024;2023-05-07T04:08:02;4.45;;;3.35;;
30888;SDS011;51092;50.874;7.024;2023-05-07T04:09:05;5.45;;;3.25;;
30888;SDS011;51092;50.874;7.024;2023-05-07T04:10:07;4.15;;;3.75;;
30888;SDS011;51092;50.874;7.024;2023-05-07T04:11:10;5.18;;;3.53;;
30888;SDS011;51092;50.874;7.024;2023-05-07T04:12:12;6.63;;;3.72;;
30888;SDS011;51092;50.874;7.024;2023-05-07T04:13:14;5.95;;;3.17;;
30888;SDS011;51092;50.874;7.024;2023-05-07T04:14:16;4.72;;;3.72;;
30888;SDS011;51092;50.874;7.024;2023-05-07T04:15:19;5.50;;;3.50;;
30888;SDS011;51092;50.874;7.024;2023-05-07T04:16:21;4.55;;;3.42;;
30888;SDS011;51092;50.874;7.024;2023-05-07T04:17:24;7.32;;;3.30;;
30888;SDS011;51092;50.874;7.024;2023-05-07T04:18:25;4.00;;;3.15;;
30888;SDS011;51092;50.874;7.024;2023-05-07T04:19:28;4.13;;;2.90;;
30888;SDS011;51092;50.874;7.024;2023-05-07T04:20:29;5.70;;;3.08;;
30888;SDS011;51092;50.874;7.024;2023-05-07T04:21:31;6.10;;;4.30;;
30888;SDS011;51092;50.874;7.024;2023-05-07T04:22:33;5.65;;;3.38;;
30888;SDS011;51092;50.874;7.024;2023-05-07T04:23:35;4.90;;;3.63;;
30888;SDS011;51092;50.874;7.024;2023-05-07T04:24:37;5.78;;;3.47;;
30888;SDS011;51092;50.874;7.024;2023-05-07T04:25:39;4.20;;;3.70;;
30888;SDS011;51092;50.874;7.024;2023-05-07T04:26:41;5.38;;;3.33;;
30888;SDS011;51092;50.874;7.024;2023-05-07T04:27:44;5.47;;;3.58;;
30888;SDS011;51092;50.874;7.024;2023-05-07T04:28:45;4.70;;;2.85;;
30888;SDS011;51092;50.874;7.024;2023-05-07T04:29:48;4.40;;;3.15;;
30888;SDS011;51092;50.874;7.024;2023-05-07T04:30:50;6.03;;;3.53;;
30888;SDS011;51092;50.874;7.024;2023-05-07T04:31:53;3.88;;;3.03;;
30888;SDS011;51092;50.874;7.024;2023-05-07T04:32:56;3.83;;;3.22;;
30888;SDS011;51092;50.874;7.024;2023-05-07T04:33:59;3.70;;;3.33;;
30888;SDS011;51092;50.874;7.024;2023-05-07T04:35:00;3.67;;;2.80;;
30888;SDS011;51092;50.874;7.024;2023-05-07T04:36:03;4.45;;;3.17;;
30888;SDS011;51092;50.874;7.024;2023-05-07T04:37:05;4.45;;;2.83;;
30888;SDS011;51092;50.874;7.024;2023-05-07T04:38:08;4.50;;;3.60;;
30888;SDS011;51092;50.874;7.024;2023-05-07T04:39:09;4.55;;;3.33;;
30888;SDS011;51092;50.874;7.024;2023-05-07T04:40:12;3.78;;;3.10;;
30888;SDS011;51092;50.874;7.024;2023-05-07T04:41:14;6.65;;;3.25;;
30888;SDS011;51092;50.874;7.024;2023-05-07T04:42:17;2.95;;;2.55;;
30888;SDS011;51092;50.874;7.024;2023-05-07T04:43:19;4.63;;;3.55;;
30888;SDS011;51092;50.874;7.024;2023-05-07T04:44:22;4.32;;;3.10;;
30888;SDS011;51092;50.874;7.024;2023-05-07T04:45:23;3.17;;;2.70;;
30888;SDS011;51092;50.874;7.024;2023-05-07T04:46:27;5.03;;;2.67;;
30888;SDS011;51092;50.874;7.024;2023-05-07T04:47:28;4.63;;;3.22;;
30888;SDS011;51092;50.874;7.024;2023-05-07T04:48:31;4.97;;;3.13;;
30888;SDS011;51092;50.874;7.024;2023-05-07T04:49:32;4.45;;;2.72;;
30888;SDS011;51092;50.874;7.024;2023-05-07T04:50:35;4.47;;;2.85;;
30888;SDS011;51092;50.874;7.024;2023-05-07T04:51:36;5.18;;;2.88;;
30888;SDS011;51092;50.874;7.024;2023-05-07T04:52:39;5.43;;;2.60;;
30888;SDS011;51092;50.874;7.024;2023-05-07T04:53:41;5.18;;;2.97;;
30888;SDS011;51092;50.874;7.024;2023-05-07T04:54:43;4.68;;;2.92;;
30888;SDS011;51092;50.874;7.024;2023-05-07T04:55:45;4.80;;;2.90;;
30888;SDS011;51092;50.874;7.024;2023-05-07T04:56:47;8.40;;;3.03;;
30888;SDS011;51092;50.874;7.024;2023-05-07T04:57:49;3.80;;;2.83;;
30888;SDS011;51092;50.874;7.024;2023-05-07T04:58:51;3.80;;;2.65;;
30888;SDS011;51092;50.874;7.024;2023-05-07T04:59:53;6.35;;;2.90;;
30888;SDS011;51092;50.874;7.024;2023-05-07T05:00:55;6.38;;;2.75;;
30888;SDS011;51092;50.874;7.024;2023-05-07T05:01:58;3.85;;;2.50;;
30888;SDS011;51092;50.874;7.024;2023-05-07T05:03:01;5.63;;;2.45;;
30888;SDS011;51092;50.874;7.024;2023-05-07T05:04:03;8.20;;;2.65;;
30888;SDS011;51092;50.874;7.024;2023-05-07T05:05:06;3.50;;;2.85;;
30888;SDS011;51092;50.874;7.024;2023-05-07T05:06:08;3.78;;;2.50;;
30888;SDS011;51092;50.874;7.024;2023-05-07T05:07:10;3.78;;;2.75;;
30888;SDS011;51092;50.874;7.024;2023-05-07T05:08:13;3.85;;;2.65;;
30888;SDS011;51092;50.874;7.024;2023-05-07T05:09:15;8.05;;;3.50;;
30888;SDS011;51092;50.874;7.024;2023-05-07T05:10:17;5.35;;;3.00;;
30888;SDS011;51092;50.874;7.024;2023-05-07T05:11:19;6.55;;;2.80;;
30888;SDS011;51092;50.874;7.024;2023-05-07T05:12:21;3.80;;;2.72;;
30888;SDS011;51092;50.874;7.024;2023-05-07T05:13:24;2.80;;;2.47;;
30888;SDS011;51092;50.874;7.024;2023-05-07T05:14:25;4.93;;;3.42;;
30888;SDS011;51092;50.874;7.024;2023-05-07T05:15:28;5.32;;;2.60;;
30888;SDS011;51092;50.874;7.024;2023-05-07T05:16:29;3.85;;;2.60;;
30888;SDS011;51092;50.874;7.024;2023-05-07T05:17:33;4.47;;;2.40;;
30888;SDS011;51092;50.874;7.024;2023-05-07T05:18:35;6.07;;;2.72;;
30888;SDS011;51092;50.874;7.024;2023-05-07T05:19:38;3.53;;;2.83;;
30888;SDS011;51092;50.874;7.024;2023-05-07T05:20:40;4.85;;;2.33;;
30888;SDS011;51092;50.874;7.024;2023-05-07T05:21:42;4.13;;;2.88;;
30888;SDS011;51092;50.874;7.024;2023-05-07T05:22:44;3.88;;;2.50;;
30888;SDS011;51092;50.874;7.024;2023-05-07T05:23:47;5.85;;;3.08;;
30888;SDS011;51092;50.874;7.024;2023-05-07T05:24:48;4.28;;;2.53;;
30888;SDS011;51092;50.874;7.024;2023-05-07T05:25:54;4.40;;;2.10;;
30888;SDS011;51092;50.874;7.024;2023-05-07T05:26:57;4.47;;;2.50;;
30888;SDS011;51092;50.874;7.024;2023-05-07T05:28:01;5.05;;;2.58;;
30888;SDS011;51092;50.874;7.024;2023-05-07T05:29:03;3.20;;;2.00;;
30888;SDS011;51092;50.874;7.024;2023-05-07T05:30:06;3.45;;;2.42;;
30888;SDS011;51092;50.874;7.024;2023-05-07T05:31:08;4.10;;;2.63;;
30888;SDS011;51092;50.874;7.024;2023-05-07T05:32:10;3.10;;;2.17;;
30888;SDS011;51092;50.874;7.024;2023-05-07T05:33:13;6.35;;;2.25;;
30888;SDS011;51092;50.874;7.024;2023-05-07T05:34:16;5.47;;;2.45;;
30888;SDS011;51092;50.874;7.024;2023-05-07T05:35:20;3.35;;;2.10;;
30888;SDS011;51092;50.874;7.024;2023-05-07T05:36:23;4.40;;;2.00;;
30888;SDS011;51092;50.874;7.024;2023-05-07T05:37:24;2.33;;;2.00;;
30888;SDS011;51092;50.874;7.024;2023-05-07T05:38:27;2.50;;;2.03;;
30888;SDS011;51092;50.874;7.024;2023-05-07T05:39:28;3.55;;;2.20;;
30888;SDS011;51092;50.874;7.024;2023-05-07T05:40:31;3.33;;;2.03;;
30888;SDS011;51092;50.874;7.024;2023-05-07T05:41:34;3.45;;;2.20;;
30888;SDS011;51092;50.874;7.024;2023-05-07T05:42:36;2.63;;;2.03;;
30888;SDS011;51092;50.874;7.024;2023-05-07T05:43:38;4.30;;;2.00;;
30888;SDS011;51092;50.874;7.024;2023-05-07T05:44:41;1.98;;;1.77;;
30888;SDS011;51092;50.874;7.024;2023-05-07T05:45:43;3.63;;;2.00;;
30888;SDS011;51092;50.874;7.024;2023-05-07T05:46:45;4.25;;;2.33;;
30888;SDS011;51092;50.874;7.024;2023-05-07T05:47:47;2.25;;;1.95;;
30888;SDS011;51092;50.874;7.024;2023-05-07T05:48:51;2.55;;;1.85;;
30888;SDS011;51092;50.874;7.024;2023-05-07T05:49:52;2.65;;;2.03;;
30888;SDS011;51092;50.874;7.024;2023-05-07T05:50:55;2.60;;;1.92;;
30888;SDS011;51092;50.874;7.024;2023-05-07T05:51:56;2.25;;;1.88;;
30888;SDS011;51092;50.874;7.024;2023-05-07T05:52:58;3.78;;;1.67;;
30888;SDS011;51092;50.874;7.024;2023-05-07T05:54:00;2.80;;;1.73;;
30888;SDS011;51092;50.874;7.024;2023-05-07T05:55:02;3.00;;;1.80;;
30888;SDS011;51092;50.874;7.024;2023-05-07T05:56:05;3.33;;;1.83;;
30888;SDS011;51092;50.874;7.024;2023-05-07T05:57:08;3.42;;;2.30;;
30888;SDS011;51092;50.874;7.024;2023-05-07T05:58:10;2.72;;;2.28;;
30888;SDS011;51092;50.874;7.024;2023-05-07T05:59:12;2.92;;;2.08;;
30888;SDS011;51092;50.874;7.024;2023-05-07T06:00:14;3.35;;;2.40;;
30888;SDS011;51092;50.874;7.024;2023-05-07T06:01:17;4.50;;;2.33;;
30888;SDS011;51092;50.874;7.024;2023-05-07T06:02:18;3.13;;;1.67;;
30888;SDS011;51092;50.874;7.024;2023-05-07T06:03:21;2.95;;;2.17;;
30888;SDS011;51092;50.874;7.024;2023-05-07T06:04:24;5.85;;;2.40;;
30888;SDS011;51092;50.874;7.024;2023-05-07T06:05:26;5.30;;;2.00;;
30888;SDS011;51092;50.874;7.024;2023-05-07T06:06:28;2.22;;;1.95;;
30888;SDS011;51092;50.874;7.024;2023-05-07T06:07:31;2.17;;;1.50;;
30888;SDS011;51092;50.874;7.024;2023-05-07T06:08:33;3.83;;;2.05;;
30888;SDS011;51092;50.874;7.024;2023-05-07T06:09:35;7.78;;;2.50;;
30888;SDS011;51092;50.874;7.024;2023-05-07T06:10:36;4.07;;;1.83;;
30888;SDS011;51092;50.874;7.024;2023-05-07T06:11:39;2.70;;;1.90;;
30888;SDS011;51092;50.874;7.024;2023-05-07T06:12:41;4.20;;;2.53;;
30888;SDS011;51092;50.874;7.024;2023-05-07T06:13:43;4.90;;;2.15;;
30888;SDS011;51092;50.874;7.024;2023-05-07T06:14:44;2.83;;;2.20;;
30888;SDS011;51092;50.874;7.024;2023-05-07T06:15:47;2.33;;;2.13;;
30888;SDS011;51092;50.874;7.024;2023-05-07T06:16:49;4.28;;;1.92;;